Time;durP1;ratioP1;P1;durP2;ratioP2;P2;SDS_P1;SDS_P2;PMS_P1;PMS_P2;Temp;Humidity;BMP_temperature;BMP_pressure;BME280_temperature;BME280_humidity;BME280_pressure;Samples;Min_cycle;Max_cycle;Signal;HPM_P1;HPM_P2
2024/04/18 00:00:20;;;;;;;2.05;0.73;;;;;;;;;;5223382;26;20145;-51
2024/04/18 00:02:46;;;;;;;1.90;0.75;;;;;;;;;;5199050;26;20573;-50
2024/04/18 00:05:21;;;;;;;2.13;0.88;;;;;;;;;;5227359;26;20184;-50
2024/04/18 00:07:52;;;;;;;1.30;0.70;;;;;;;;;;5198773;26;20198;-50
2024/04/18 00:10:27;;;;;;;1.92;0.70;;;;;;;;;;5226966;26;20133;-50
2024/04/18 00:12:55;;;;;;;2.28;0.77;;;;;;;;;;5307211;26;20466;-50
2024/04/18 00:15:24;;;;;;;2.83;0.98;;;;;;;;;;5298118;26;20332;-51
2024/04/18 00:17:51;;;;;;;1.65;0.80;;;;;;;;;;5299553;26;20252;-51
2024/04/18 00:20:19;;;;;;;1.50;0.68;;;;;;;;;;5296786;26;20424;-49
2024/04/18 00:22:45;;;;;;;2.08;0.80;;;;;;;;;;5316834;26;20156;-48
2024/04/18 00:25:11;;;;;;;1.60;0.70;;;;;;;;;;5294660;26;20163;-50
2024/04/18 00:27:46;;;;;;;1.27;0.70;;;;;;;;;;5294529;26;20225;-50
2024/04/18 00:30:15;;;;;;;1.48;0.73;;;;;;;;;;5325709;26;20197;-51
2024/04/18 00:32:43;;;;;;;1.65;0.77;;;;;;;;;;5326617;26;20829;-53
2024/04/18 00:35:10;;;;;;;1.48;0.60;;;;;;;;;;5287782;26;20139;-57
2024/04/18 00:37:46;;;;;;;1.77;0.70;;;;;;;;;;5319974;26;20136;-57
2024/04/18 00:40:14;;;;;;;1.60;0.80;;;;;;;;;;5326130;26;20220;-55
2024/04/18 00:42:40;;;;;;;1.92;0.80;;;;;;;;;;5296535;26;20531;-56
2024/04/18 00:45:11;;;;;;;2.60;0.80;;;;;;;;;;5285764;26;20221;-57
2024/04/18 00:47:43;;;;;;;1.80;0.70;;;;;;;;;;5291743;26;20228;-57
2024/04/18 00:50:11;;;;;;;1.63;0.60;;;;;;;;;;5299832;26;20523;-56
2024/04/18 00:52:40;;;;;;;2.00;0.85;;;;;;;;;;5288946;26;20139;-59
2024/04/18 00:55:09;;;;;;;1.17;0.63;;;;;;;;;;5292022;26;20132;-52
2024/04/18 00:57:37;;;;;;;1.88;0.70;;;;;;;;;;5325056;26;20139;-52
2024/04/18 01:00:05;;;;;;;1.77;0.63;;;;;;;;;;5293892;26;20215;-53
2024/04/18 01:02:30;;;;;;;1.60;0.70;;;;;;;;;;5273098;26;20140;-53
2024/04/18 01:04:58;;;;;;;1.73;0.80;;;;;;;;;;5297420;26;20151;-51
2024/04/18 01:07:26;;;;;;;1.42;0.60;;;;;;;;;;5296985;26;20148;-52
2024/04/18 01:09:54;;;;;;;1.33;0.65;;;;;;;;;;5291496;26;20276;-52
2024/04/18 01:12:19;;;;;;;2.65;0.85;;;;;;;;;;5292785;26;20139;-53
2024/04/18 01:14:49;;;;;;;0.95;0.60;;;;;;;;;;5325720;26;20172;-52
2024/04/18 01:17:18;;;;;;;1.52;0.65;;;;;;;;;;5325574;26;20236;-53
2024/04/18 01:19:46;;;;;;;1.30;0.65;;;;;;;;;;5298169;26;20129;-53
2024/04/18 01:22:14;;;;;;;1.55;0.57;;;;;;;;;;5299263;26;20139;-53
2024/04/18 01:24:42;;;;;;;1.70;0.90;;;;;;;;;;5296843;26;20161;-50
2024/04/18 01:27:09;;;;;;;1.77;0.70;;;;;;;;;;5297151;26;20144;-52
2024/04/18 01:29:38;;;;;;;1.48;0.70;;;;;;;;;;5326527;26;20178;-52
2024/04/18 01:32:05;;;;;;;1.10;0.47;;;;;;;;;;5296520;26;20128;-53
2024/04/18 01:34:33;;;;;;;1.23;0.63;;;;;;;;;;5293937;26;20139;-52
2024/04/18 01:37:01;;;;;;;1.55;0.70;;;;;;;;;;5296761;26;20205;-52
2024/04/18 01:39:32;;;;;;;1.88;0.80;;;;;;;;;;5295724;26;20158;-50
2024/04/18 01:41:59;;;;;;;0.88;0.60;;;;;;;;;;5297208;26;20468;-50
2024/04/18 01:44:27;;;;;;;2.60;0.68;;;;;;;;;;5225408;26;20146;-52
2024/04/18 01:46:53;;;;;;;1.52;0.70;;;;;;;;;;5200048;26;20126;-53
2024/04/18 01:49:22;;;;;;;0.65;0.40;;;;;;;;;;5209067;26;20207;-52
2024/04/18 01:51:49;;;;;;;1.15;0.60;;;;;;;;;;5223644;26;20465;-51
2024/04/18 01:54:15;;;;;;;1.05;0.55;;;;;;;;;;5190903;26;20181;-51
2024/04/18 01:56:42;;;;;;;1.13;0.65;;;;;;;;;;5228720;26;20221;-51
2024/04/18 01:59:12;;;;;;;1.58;0.80;;;;;;;;;;5229390;26;20157;-54
2024/04/18 02:01:38;;;;;;;2.72;0.60;;;;;;;;;;5258841;26;20074;-51
2024/04/18 02:04:05;;;;;;;1.58;0.65;;;;;;;;;;5225974;26;20241;-52
2024/04/18 02:06:33;;;;;;;0.65;0.50;;;;;;;;;;5186960;26;20141;-52
2024/04/18 02:09:06;;;;;;;1.10;0.60;;;;;;;;;;5198638;26;20193;-51
2024/04/18 02:11:33;;;;;;;1.35;0.50;;;;;;;;;;5209103;26;20503;-53
2024/04/18 02:14:00;;;;;;;1.92;0.50;;;;;;;;;;5226520;26;20138;-53
2024/04/18 02:16:27;;;;;;;1.58;0.50;;;;;;;;;;5287991;26;20129;-51
2024/04/18 02:18:56;;;;;;;1.73;0.60;;;;;;;;;;5295889;26;20221;-52
2024/04/18 02:21:23;;;;;;;1.25;0.60;;;;;;;;;;5292648;26;20125;-53
2024/04/18 02:23:53;;;;;;;0.85;0.45;;;;;;;;;;5273215;26;20133;-52
2024/04/18 02:26:22;;;;;;;1.13;0.50;;;;;;;;;;5294745;26;20215;-50
2024/04/18 02:28:49;;;;;;;1.13;0.60;;;;;;;;;;5315981;26;20139;-52
2024/04/18 02:31:16;;;;;;;1.08;0.60;;;;;;;;;;5324004;26;20129;-52
2024/04/18 02:33:44;;;;;;;1.88;0.60;;;;;;;;;;5293571;26;20302;-53
2024/04/18 02:36:14;;;;;;;1.50;0.70;;;;;;;;;;5294678;26;20165;-51
2024/04/18 02:38:45;;;;;;;1.15;0.65;;;;;;;;;;5295456;26;20166;-51
2024/04/18 02:41:14;;;;;;;0.80;0.50;;;;;;;;;;5288335;26;20299;-52
2024/04/18 02:43:41;;;;;;;1.13;0.60;;;;;;;;;;5292391;26;20446;-51
2024/04/18 02:46:09;;;;;;;1.52;0.70;;;;;;;;;;5293690;26;20166;-52
2024/04/18 02:48:38;;;;;;;0.55;0.40;;;;;;;;;;5294823;26;20220;-52
2024/04/18 02:51:09;;;;;;;1.38;0.60;;;;;;;;;;5300299;26;20129;-52
2024/04/18 02:53:35;;;;;;;1.40;0.60;;;;;;;;;;5292990;26;20194;-51
2024/04/18 02:56:05;;;;;;;0.52;0.40;;;;;;;;;;5297220;26;20140;-52
2024/04/18 02:58:33;;;;;;;1.23;0.60;;;;;;;;;;5289007;26;20136;-51
2024/04/18 03:01:07;;;;;;;1.40;0.60;;;;;;;;;;5332238;26;20255;-51
2024/04/18 03:03:37;;;;;;;2.05;0.60;;;;;;;;;;5294632;26;20217;-49
2024/04/18 03:06:05;;;;;;;1.02;0.50;;;;;;;;;;5282621;26;20147;-51
2024/04/18 03:08:34;;;;;;;1.92;0.70;;;;;;;;;;5298000;26;20208;-51
2024/04/18 03:11:02;;;;;;;1.35;0.52;;;;;;;;;;5297965;26;20455;-52
2024/04/18 03:13:29;;;;;;;0.77;0.45;;;;;;;;;;5295689;26;20124;-51
2024/04/18 03:15:58;;;;;;;1.75;0.60;;;;;;;;;;5289823;26;20140;-50
2024/04/18 03:18:27;;;;;;;1.10;0.60;;;;;;;;;;5288355;26;20196;-51
2024/04/18 03:20:56;;;;;;;0.88;0.50;;;;;;;;;;5289294;26;20318;-51
2024/04/18 03:23:23;;;;;;;1.00;0.55;;;;;;;;;;5292224;26;20142;-52
2024/04/18 03:25:50;;;;;;;1.50;0.63;;;;;;;;;;5293624;26;20558;-49
2024/04/18 03:28:18;;;;;;;1.30;0.50;;;;;;;;;;5287649;26;20135;-52
2024/04/18 03:30:47;;;;;;;1.73;0.75;;;;;;;;;;5291745;26;20143;-49
2024/04/18 03:33:18;;;;;;;0.93;0.55;;;;;;;;;;5323064;26;20242;-49
2024/04/18 03:35:47;;;;;;;1.25;0.50;;;;;;;;;;5287816;26;20155;-49
2024/04/18 03:38:17;;;;;;;0.50;0.43;;;;;;;;;;5291298;26;20536;-51
2024/04/18 03:41:09;;;;;;;1.67;0.50;;;;;;;;;;5312647;26;20132;-52
2024/04/18 03:43:40;;;;;;;1.27;0.60;;;;;;;;;;5323431;26;20212;-50
2024/04/18 03:46:08;;;;;;;0.63;0.50;;;;;;;;;;5292244;26;20180;-50
2024/04/18 03:48:35;;;;;;;1.13;0.60;;;;;;;;;;5294169;26;20155;-52
2024/04/18 03:51:04;;;;;;;0.98;0.50;;;;;;;;;;5326956;26;20167;-51
2024/04/18 03:53:33;;;;;;;1.00;0.60;;;;;;;;;;5281107;26;20188;-52
2024/04/18 03:56:07;;;;;;;2.85;0.57;;;;;;;;;;5297914;26;20150;-52
2024/04/18 03:58:47;;;;;;;1.10;0.60;;;;;;;;;;5328019;26;20140;-51
2024/04/18 04:01:14;;;;;;;1.13;0.60;;;;;;;;;;5323578;26;20713;-52
2024/04/18 04:03:42;;;;;;;1.35;0.60;;;;;;;;;;5298838;26;20536;-52
2024/04/18 04:06:10;;;;;;;1.00;0.50;;;;;;;;;;5298079;26;20158;-52
2024/04/18 04:08:36;;;;;;;0.95;0.40;;;;;;;;;;5294121;26;20157;-51
2024/04/18 04:11:04;;;;;;;0.88;0.40;;;;;;;;;;5314854;26;20155;-52
2024/04/18 04:13:34;;;;;;;1.75;0.60;;;;;;;;;;5296965;26;20147;-51
2024/04/18 04:16:03;;;;;;;1.13;0.60;;;;;;;;;;5288800;26;20191;-52
2024/04/18 04:18:33;;;;;;;0.75;0.47;;;;;;;;;;5290642;26;20282;-51
2024/04/18 04:21:02;;;;;;;5.55;0.60;;;;;;;;;;5294045;26;20236;-51
2024/04/18 04:23:36;;;;;;;1.13;0.50;;;;;;;;;;5321110;26;20445;-51
2024/04/18 04:26:05;;;;;;;0.80;0.47;;;;;;;;;;5296657;26;20217;-53
2024/04/18 04:28:40;;;;;;;0.95;0.55;;;;;;;;;;5297031;26;20458;-51
2024/04/18 04:31:11;;;;;;;1.75;0.70;;;;;;;;;;5320105;26;20158;-52
2024/04/18 04:33:42;;;;;;;1.25;0.47;;;;;;;;;;5324096;26;20170;-51
2024/04/18 04:36:17;;;;;;;1.58;0.65;;;;;;;;;;5322862;26;20127;-51
2024/04/18 04:38:46;;;;;;;1.00;0.50;;;;;;;;;;5298759;26;20150;-52
2024/04/18 04:41:12;;;;;;;1.38;0.40;;;;;;;;;;5299040;26;20158;-57
2024/04/18 04:43:41;;;;;;;2.25;0.60;;;;;;;;;;5292734;26;20141;-57
2024/04/18 04:46:10;;;;;;;1.55;0.68;;;;;;;;;;5295626;26;20157;-58
2024/04/18 04:48:39;;;;;;;1.38;0.60;;;;;;;;;;5298043;26;20176;-57
2024/04/18 04:51:09;;;;;;;0.90;0.50;;;;;;;;;;5288648;26;20141;-57
2024/04/18 04:53:36;;;;;;;0.80;0.60;;;;;;;;;;5298928;26;20180;-57
2024/04/18 04:56:05;;;;;;;1.15;0.60;;;;;;;;;;5319111;26;20190;-50
2024/04/18 04:58:34;;;;;;;1.23;0.57;;;;;;;;;;5291372;26;20571;-51
2024/04/18 05:01:00;;;;;;;1.65;0.60;;;;;;;;;;5295643;26;20536;-52
2024/04/18 05:03:27;;;;;;;0.40;0.40;;;;;;;;;;5297880;26;20190;-51
2024/04/18 05:05:54;;;;;;;1.02;0.60;;;;;;;;;;5297152;26;20144;-51
2024/04/18 05:08:23;;;;;;;0.65;0.50;;;;;;;;;;5296684;26;20212;-51
2024/04/18 05:10:50;;;;;;;0.55;0.50;;;;;;;;;;5291797;26;20147;-52
2024/04/18 05:13:21;;;;;;;0.40;0.40;;;;;;;;;;5290823;26;20187;-51
2024/04/18 05:15:50;;;;;;;0.97;0.50;;;;;;;;;;5317158;26;20209;-51
2024/04/18 05:18:16;;;;;;;0.63;0.43;;;;;;;;;;5318361;26;20140;-52
2024/04/18 05:20:45;;;;;;;0.70;0.50;;;;;;;;;;5299760;26;20205;-51
2024/04/18 05:23:15;;;;;;;1.00;0.50;;;;;;;;;;5323755;26;20145;-50
2024/04/18 05:25:45;;;;;;;0.80;0.50;;;;;;;;;;5301709;26;20150;-50
2024/04/18 05:28:20;;;;;;;2.10;0.52;;;;;;;;;;5300789;26;20669;-51
2024/04/18 05:31:04;;;;;;;1.13;0.50;;;;;;;;;;5301582;26;20135;-53
2024/04/18 05:33:36;;;;;;;1.00;0.50;;;;;;;;;;5304553;26;20455;-51
2024/04/18 05:36:17;;;;;;;1.58;0.50;;;;;;;;;;5280633;26;20207;-51
2024/04/18 05:38:43;;;;;;;0.88;0.45;;;;;;;;;;5298697;26;20749;-53
2024/04/18 05:41:13;;;;;;;1.15;0.60;;;;;;;;;;5328849;26;20144;-48
2024/04/18 05:43:41;;;;;;;0.80;0.57;;;;;;;;;;5322315;26;20156;-52
2024/04/18 05:46:09;;;;;;;1.30;0.50;;;;;;;;;;5326587;26;20226;-51
2024/04/18 05:48:39;;;;;;;0.93;0.60;;;;;;;;;;5299197;26;20219;-51
2024/04/18 05:51:06;;;;;;;0.70;0.47;;;;;;;;;;5328861;26;20140;-52
2024/04/18 05:53:35;;;;;;;0.60;0.40;;;;;;;;;;5298980;26;20151;-52
2024/04/18 05:56:01;;;;;;;0.43;0.43;;;;;;;;;;5295492;26;20144;-51
2024/04/18 05:58:30;;;;;;;1.65;0.40;;;;;;;;;;5295251;26;20557;-52
2024/04/18 06:00:57;;;;;;;0.52;0.43;;;;;;;;;;5347880;26;20155;-51
2024/04/18 06:03:28;;;;;;;0.60;0.40;;;;;;;;;;5299566;26;20142;-52
2024/04/18 06:06:05;;;;;;;0.85;0.50;;;;;;;;;;5308581;26;20153;-52
2024/04/18 06:08:34;;;;;;;1.27;0.65;;;;;;;;;;5295283;26;20216;-51
2024/04/18 06:11:12;;;;;;;1.33;0.52;;;;;;;;;;5292886;26;20141;-51
2024/04/18 06:13:40;;;;;;;1.33;0.60;;;;;;;;;;5326715;26;20261;-57
2024/04/18 06:16:10;;;;;;;0.82;0.50;;;;;;;;;;5283314;26;20147;-57
2024/04/18 06:18:37;;;;;;;0.85;0.57;;;;;;;;;;5291952;26;20495;-58
2024/04/18 06:21:05;;;;;;;1.02;0.57;;;;;;;;;;5284407;26;20209;-57
2024/04/18 06:23:34;;;;;;;1.00;0.60;;;;;;;;;;5326917;26;20478;-57
2024/04/18 06:26:01;;;;;;;1.10;0.50;;;;;;;;;;5329189;26;20298;-56
2024/04/18 06:28:28;;;;;;;1.02;0.57;;;;;;;;;;5297805;26;20211;-57
2024/04/18 06:30:58;;;;;;;0.80;0.55;;;;;;;;;;5288531;26;20481;-50
2024/04/18 06:33:29;;;;;;;0.85;0.55;;;;;;;;;;5291438;26;20200;-52
2024/04/18 06:35:58;;;;;;;0.70;0.50;;;;;;;;;;5323235;26;20268;-52
2024/04/18 06:38:26;;;;;;;0.57;0.50;;;;;;;;;;5297882;26;20148;-49
2024/04/18 06:40:55;;;;;;;0.95;0.60;;;;;;;;;;5281444;26;20227;-50
2024/04/18 06:43:23;;;;;;;1.02;0.60;;;;;;;;;;5298247;26;20520;-50
2024/04/18 06:45:53;;;;;;;1.02;0.50;;;;;;;;;;5296076;26;20397;-57
2024/04/18 06:48:22;;;;;;;1.50;0.68;;;;;;;;;;5315630;26;20497;-57
2024/04/18 06:50:50;;;;;;;1.63;0.65;;;;;;;;;;5297356;26;20151;-57
2024/04/18 06:53:17;;;;;;;1.10;0.60;;;;;;;;;;5297019;26;20159;-57
2024/04/18 06:55:53;;;;;;;0.85;0.57;;;;;;;;;;5291655;26;20482;-57
2024/04/18 06:58:24;;;;;;;0.50;0.50;;;;;;;;;;5296893;26;20176;-51
2024/04/18 07:00:57;;;;;;;1.23;0.70;;;;;;;;;;5281448;26;20140;-58
2024/04/18 07:03:25;;;;;;;0.80;0.52;;;;;;;;;;5296992;26;20178;-58
2024/04/18 07:05:53;;;;;;;0.88;0.55;;;;;;;;;;5293437;26;20141;-59
2024/04/18 07:08:20;;;;;;;1.20;0.65;;;;;;;;;;5307031;26;20180;-58
2024/04/18 07:10:48;;;;;;;1.25;0.70;;;;;;;;;;5293604;26;20149;-58
2024/04/18 07:13:15;;;;;;;5.60;0.73;;;;;;;;;;5297750;26;20137;-58
2024/04/18 07:15:42;;;;;;;0.70;0.52;;;;;;;;;;5328460;26;20447;-58
2024/04/18 07:18:09;;;;;;;0.93;0.70;;;;;;;;;;5298450;26;20143;-54
2024/04/18 07:20:35;;;;;;;0.55;0.50;;;;;;;;;;5298560;26;20194;-51
2024/04/18 07:23:04;;;;;;;0.85;0.50;;;;;;;;;;5297742;26;20186;-51
2024/04/18 07:25:33;;;;;;;1.08;0.50;;;;;;;;;;5298471;26;20141;-52
2024/04/18 07:27:59;;;;;;;0.85;0.47;;;;;;;;;;5298461;26;20201;-51
2024/04/18 07:30:31;;;;;;;1.25;0.60;;;;;;;;;;5326794;26;20479;-52
2024/04/18 07:33:01;;;;;;;0.95;0.40;;;;;;;;;;5293518;26;20175;-50
2024/04/18 07:35:28;;;;;;;2.45;0.57;;;;;;;;;;5298557;26;20468;-48
2024/04/18 07:37:55;;;;;;;1.33;0.50;;;;;;;;;;5298234;26;20145;-51
2024/04/18 07:40:24;;;;;;;0.85;0.52;;;;;;;;;;5301600;26;20137;-57
2024/04/18 07:42:54;;;;;;;1.52;0.47;;;;;;;;;;5293862;26;20144;-56
2024/04/18 07:45:23;;;;;;;0.93;0.50;;;;;;;;;;5296568;26;20178;-57
2024/04/18 07:47:51;;;;;;;1.20;0.60;;;;;;;;;;5318312;26;20148;-57
2024/04/18 07:50:18;;;;;;;1.48;0.60;;;;;;;;;;5317270;26;20129;-57
2024/04/18 07:52:47;;;;;;;0.60;0.40;;;;;;;;;;5283553;26;20487;-53
2024/04/18 07:55:15;;;;;;;1.23;0.60;;;;;;;;;;5295950;26;20136;-50
2024/04/18 07:57:46;;;;;;;0.98;0.43;;;;;;;;;;5297594;26;20134;-50
2024/04/18 08:00:25;;;;;;;2.28;0.60;;;;;;;;;;5321869;26;20217;-51
2024/04/18 08:02:56;;;;;;;1.17;0.50;;;;;;;;;;5274624;26;20129;-52
2024/04/18 08:05:27;;;;;;;1.55;0.70;;;;;;;;;;5293132;26;20139;-51
2024/04/18 08:07:56;;;;;;;2.72;0.57;;;;;;;;;;5296214;26;20148;-51
2024/04/18 08:10:24;;;;;;;0.93;0.50;;;;;;;;;;5323756;26;20208;-51
2024/04/18 08:21:57;;;;;;;3.15;0.80;;;;;;;;;;5296978;26;20141;-52
2024/04/18 08:24:41;;;;;;;1.55;0.50;;;;;;;;;;5328094;26;20201;-49
2024/04/18 08:59:32;;;;;;;2.80;0.80;;;;;;;;;;5327051;26;20235;-53
2024/04/18 09:02:02;;;;;;;2.22;0.55;;;;;;;;;;5296519;26;20144;-56
2024/04/18 09:04:30;;;;;;;2.72;1.00;;;;;;;;;;5306303;26;20139;-55
2024/04/18 09:07:03;;;;;;;0.82;0.47;;;;;;;;;;5305450;26;20178;-57
2024/04/18 09:09:35;;;;;;;2.00;0.73;;;;;;;;;;5321228;26;20235;-57
2024/04/18 09:12:06;;;;;;;1.90;0.52;;;;;;;;;;5309990;26;20373;-58
2024/04/18 09:14:33;;;;;;;1.73;0.70;;;;;;;;;;5297409;26;20152;-58
2024/04/18 09:17:15;;;;;;;2.20;0.73;;;;;;;;;;5300392;26;20144;-57
2024/04/18 09:19:45;;;;;;;3.03;0.70;;;;;;;;;;5299682;26;20725;-59
2024/04/18 09:22:12;;;;;;;1.45;0.68;;;;;;;;;;5288318;26;20152;-57
2024/04/18 09:24:45;;;;;;;1.73;0.77;;;;;;;;;;5307382;26;20447;-59
2024/04/18 09:28:24;;;;;;;1.92;0.60;;;;;;;;;;5276308;26;20144;-57
2024/04/18 10:47:39;;;;;;;1.60;0.68;;;;;;;;;;5333377;26;20192;-48
2024/04/18 12:26:49;;;;;;;2.55;0.50;;;;;;;;;;5341222;25;20481;-57
2024/04/18 12:29:21;;;;;;;1.77;0.63;;;;;;;;;;5314472;25;20143;-59
2024/04/18 12:31:49;;;;;;;1.10;0.40;;;;;;;;;;5367311;25;20588;-57
2024/04/18 12:34:17;;;;;;;1.02;0.50;;;;;;;;;;5309879;26;20530;-58
2024/04/18 12:36:47;;;;;;;1.38;0.40;;;;;;;;;;5312957;26;20128;-57
2024/04/18 12:39:24;;;;;;;1.98;0.70;;;;;;;;;;5309674;26;20288;-56
2024/04/18 12:41:50;;;;;;;1.58;0.57;;;;;;;;;;5332411;26;20199;-56
2024/04/18 12:44:19;;;;;;;1.42;0.52;;;;;;;;;;5345452;25;20141;-57
2024/04/18 12:46:51;;;;;;;1.85;0.57;;;;;;;;;;5351878;26;20195;-57
2024/04/18 12:49:19;;;;;;;0.98;0.50;;;;;;;;;;5311581;26;20149;-57
2024/04/18 12:51:47;;;;;;;1.13;0.50;;;;;;;;;;5354961;26;20154;-56
2024/04/18 12:54:15;;;;;;;1.48;0.65;;;;;;;;;;5355275;26;20128;-57
2024/04/18 12:56:47;;;;;;;2.03;0.65;;;;;;;;;;5326385;26;20708;-57
2024/04/18 12:59:15;;;;;;;1.50;0.52;;;;;;;;;;5327819;26;20143;-57
2024/04/18 13:01:47;;;;;;;1.52;0.70;;;;;;;;;;5346699;25;20225;-57
2024/04/18 13:04:15;;;;;;;0.68;0.50;;;;;;;;;;5316045;26;20441;-57
2024/04/18 13:06:44;;;;;;;1.77;0.55;;;;;;;;;;5317219;26;20152;-57
2024/04/18 13:09:12;;;;;;;0.93;0.50;;;;;;;;;;5351557;26;20155;-57
2024/04/18 13:11:39;;;;;;;1.63;0.50;;;;;;;;;;5321456;26;20136;-57
2024/04/18 13:14:06;;;;;;;2.92;0.57;;;;;;;;;;5326662;26;20438;-58
2024/04/18 13:16:34;;;;;;;2.05;0.77;;;;;;;;;;5343170;26;20143;-56
2024/04/18 13:19:00;;;;;;;1.63;0.80;;;;;;;;;;5354165;26;20210;-57
2024/04/18 13:21:26;;;;;;;1.85;0.73;;;;;;;;;;5320977;26;20856;-57
2024/04/18 13:23:55;;;;;;;1.02;0.50;;;;;;;;;;5321595;26;20473;-58
2024/04/18 13:26:23;;;;;;;1.90;0.50;;;;;;;;;;5324457;25;20227;-56
2024/04/18 13:28:50;;;;;;;1.35;0.65;;;;;;;;;;5295551;26;20223;-57
2024/04/18 13:31:19;;;;;;;1.25;0.60;;;;;;;;;;5315917;25;20205;-58
2024/04/18 13:33:52;;;;;;;0.93;0.50;;;;;;;;;;5310894;26;20162;-57
2024/04/18 13:36:27;;;;;;;1.02;0.32;;;;;;;;;;5316762;25;20158;-57
2024/04/18 13:38:54;;;;;;;1.52;0.52;;;;;;;;;;5291673;26;20166;-57
2024/04/18 13:41:30;;;;;;;0.85;0.40;;;;;;;;;;5307609;26;20153;-57
2024/04/18 13:43:56;;;;;;;1.52;0.52;;;;;;;;;;5331171;26;20147;-58
2024/04/18 13:46:25;;;;;;;1.02;0.60;;;;;;;;;;5310277;26;20459;-57
2024/04/18 13:48:59;;;;;;;1.25;0.60;;;;;;;;;;5324912;25;20235;-57
2024/04/18 13:51:27;;;;;;;1.00;0.45;;;;;;;;;;5300910;26;20150;-57
2024/04/18 13:53:56;;;;;;;0.85;0.50;;;;;;;;;;5291470;26;20263;-58
2024/04/18 13:56:34;;;;;;;0.98;0.43;;;;;;;;;;5281988;26;20155;-56
2024/04/18 13:59:03;;;;;;;1.10;0.57;;;;;;;;;;5289236;26;20157;-57
2024/04/18 14:01:39;;;;;;;1.20;0.50;;;;;;;;;;5320233;26;20573;-56
2024/04/18 14:04:08;;;;;;;1.30;0.63;;;;;;;;;;5292220;26;20166;-55
2024/04/18 14:06:40;;;;;;;1.38;0.60;;;;;;;;;;5291645;26;20256;-57
2024/04/18 14:09:15;;;;;;;1.48;0.60;;;;;;;;;;5348975;26;20529;-57
2024/04/18 14:11:47;;;;;;;0.88;0.40;;;;;;;;;;5320542;26;20191;-54
2024/04/18 14:18:48;;;;;;;1.23;0.60;;;;;;;;;;5328500;26;20155;-60
2024/04/18 14:22:48;;;;;;;1.88;0.50;;;;;;;;;;5317177;26;20506;-55
2024/04/18 14:25:18;;;;;;;0.82;0.50;;;;;;;;;;5257208;26;20237;-56
2024/04/18 14:27:45;;;;;;;1.13;0.50;;;;;;;;;;5307287;26;20178;-56
2024/04/18 14:30:32;;;;;;;1.63;0.50;;;;;;;;;;5320694;26;20501;-56
2024/04/18 14:33:05;;;;;;;0.70;0.60;;;;;;;;;;5322136;26;20680;-56
2024/04/18 14:35:34;;;;;;;1.67;0.50;;;;;;;;;;5320633;26;20155;-56
2024/04/18 14:38:01;;;;;;;1.05;0.50;;;;;;;;;;5321539;26;20139;-56
2024/04/18 14:40:29;;;;;;;1.55;0.73;;;;;;;;;;5320833;26;20163;-55
2024/04/18 14:43:01;;;;;;;1.92;0.60;;;;;;;;;;5351048;26;20258;-55
2024/04/18 14:45:33;;;;;;;0.70;0.50;;;;;;;;;;5350637;26;20126;-56
2024/04/18 14:48:03;;;;;;;1.58;0.60;;;;;;;;;;5313222;26;20147;-55
2024/04/18 14:50:30;;;;;;;0.70;0.40;;;;;;;;;;5310635;26;20142;-56
2024/04/18 14:53:28;;;;;;;1.90;0.60;;;;;;;;;;5352561;25;20128;-58
2024/04/18 14:56:01;;;;;;;1.27;0.50;;;;;;;;;;5318711;26;20140;-56
2024/04/18 14:58:34;;;;;;;1.35;0.50;;;;;;;;;;5325937;26;20145;-56
2024/04/18 15:01:15;;;;;;;0.98;0.60;;;;;;;;;;5317571;26;20343;-58
2024/04/18 15:03:44;;;;;;;1.08;0.50;;;;;;;;;;5316839;26;20499;-56
2024/04/18 15:06:16;;;;;;;1.30;0.60;;;;;;;;;;5253999;26;20153;-56
2024/04/18 15:08:53;;;;;;;1.65;0.70;;;;;;;;;;5257980;26;20129;-57
2024/04/18 15:11:43;;;;;;;1.65;0.70;;;;;;;;;;5247455;26;20144;-57
2024/04/18 15:14:13;;;;;;;0.82;0.55;;;;;;;;;;5286940;26;20274;-57
2024/04/18 15:16:46;;;;;;;1.17;0.52;;;;;;;;;;5295352;26;20138;-56
2024/04/18 15:19:56;;;;;;;1.55;0.60;;;;;;;;;;5249978;26;20336;-56
2024/04/18 15:22:28;;;;;;;1.85;0.60;;;;;;;;;;5225302;26;20217;-57
2024/04/18 15:24:58;;;;;;;0.93;0.60;;;;;;;;;;5263158;26;20172;-56
2024/04/18 15:27:26;;;;;;;1.75;0.60;;;;;;;;;;5304669;26;20502;-57
2024/04/18 15:29:53;;;;;;;0.63;0.50;;;;;;;;;;5289133;26;20134;-56
2024/04/18 15:32:23;;;;;;;1.65;0.57;;;;;;;;;;5260519;26;20490;-56
2024/04/18 15:34:53;;;;;;;2.03;0.80;;;;;;;;;;5293274;26;20213;-57
2024/04/18 15:37:21;;;;;;;3.00;0.88;;;;;;;;;;5293730;26;20574;-59
2024/04/18 15:40:18;;;;;;;1.00;0.50;;;;;;;;;;5263753;26;20667;-55
2024/04/18 15:42:52;;;;;;;2.88;0.82;;;;;;;;;;5255778;26;20852;-56
2024/04/18 15:45:19;;;;;;;1.40;0.57;;;;;;;;;;5301079;26;20143;-56
2024/04/18 15:47:48;;;;;;;1.85;0.63;;;;;;;;;;5322604;26;20506;-57
2024/04/18 15:50:16;;;;;;;1.73;0.70;;;;;;;;;;5325305;26;20229;-56
2024/04/18 15:52:44;;;;;;;1.92;0.77;;;;;;;;;;5325114;26;20147;-57
2024/04/18 15:55:10;;;;;;;0.95;0.52;;;;;;;;;;5326708;26;20210;-56
2024/04/18 15:57:39;;;;;;;1.80;0.80;;;;;;;;;;5324901;26;20506;-55
2024/04/18 16:00:12;;;;;;;0.98;0.60;;;;;;;;;;5354806;25;20455;-56
2024/04/18 16:02:44;;;;;;;1.08;0.60;;;;;;;;;;5325155;26;20149;-56
2024/04/18 16:05:11;;;;;;;1.10;0.50;;;;;;;;;;5325993;26;20142;-56
2024/04/18 16:07:39;;;;;;;1.52;0.50;;;;;;;;;;5323867;26;20204;-57
2024/04/18 16:10:10;;;;;;;1.30;0.70;;;;;;;;;;5327210;26;20206;-56
2024/04/18 16:12:36;;;;;;;0.95;0.57;;;;;;;;;;5326577;26;20204;-55
2024/04/18 16:15:04;;;;;;;1.08;0.60;;;;;;;;;;5325595;26;20147;-56
2024/04/18 16:17:32;;;;;;;1.35;0.63;;;;;;;;;;5326347;26;20237;-57
2024/04/18 16:19:58;;;;;;;1.30;0.60;;;;;;;;;;5324856;26;20155;-56
2024/04/18 16:22:24;;;;;;;1.52;0.60;;;;;;;;;;5325321;26;20451;-58
2024/04/18 16:24:50;;;;;;;1.17;0.60;;;;;;;;;;5325738;26;20131;-56
2024/04/18 16:27:23;;;;;;;1.30;0.60;;;;;;;;;;5319928;26;20174;-56
2024/04/18 16:29:52;;;;;;;1.48;0.65;;;;;;;;;;5347440;25;20683;-59
2024/04/18 16:32:19;;;;;;;0.93;0.50;;;;;;;;;;5358423;25;20151;-57
2024/04/18 16:34:47;;;;;;;0.88;0.43;;;;;;;;;;5324597;26;20144;-57
2024/04/18 16:37:14;;;;;;;1.00;0.50;;;;;;;;;;5324882;26;20543;-55
2024/04/18 16:39:41;;;;;;;1.73;0.65;;;;;;;;;;5353857;26;20174;-56
2024/04/18 16:42:16;;;;;;;1.23;0.60;;;;;;;;;;5353792;26;20223;-57
2024/04/18 16:44:42;;;;;;;2.58;0.80;;;;;;;;;;5352542;26;20459;-56
2024/04/18 16:47:09;;;;;;;1.42;0.80;;;;;;;;;;5324416;26;20128;-56
2024/04/18 16:49:40;;;;;;;1.75;0.70;;;;;;;;;;5325767;26;20140;-56
2024/04/18 16:52:08;;;;;;;2.95;0.80;;;;;;;;;;5315662;26;20170;-57
2024/04/18 16:54:36;;;;;;;1.08;0.70;;;;;;;;;;5353331;26;20204;-57
2024/04/18 16:57:15;;;;;;;7.07;0.70;;;;;;;;;;5323118;26;20132;-56
2024/04/18 16:59:43;;;;;;;1.73;0.80;;;;;;;;;;5351279;25;20173;-56
2024/04/18 17:02:12;;;;;;;5.93;0.90;;;;;;;;;;5316741;26;20150;-56
2024/04/18 17:04:43;;;;;;;2.80;0.77;;;;;;;;;;5306865;26;20238;-56
2024/04/18 17:07:17;;;;;;;4.78;0.80;;;;;;;;;;5305423;26;20262;-57
2024/04/18 17:10:09;;;;;;;7.20;0.90;;;;;;;;;;5332496;25;20141;-56
2024/04/18 17:12:49;;;;;;;19.58;0.98;;;;;;;;;;5318529;26;20124;-56
2024/04/18 17:46:18;;;;;;;3.15;0.80;;;;;;;;;;5353266;26;20126;-51
2024/04/18 17:48:47;;;;;;;2.30;0.88;;;;;;;;;;5320318;26;20144;-51
2024/04/18 17:51:15;;;;;;;1.90;0.80;;;;;;;;;;5316080;26;20343;-50
2024/04/18 17:53:42;;;;;;;4.80;0.93;;;;;;;;;;5330412;26;20128;-51
2024/04/18 17:56:10;;;;;;;1.80;0.80;;;;;;;;;;5359841;26;20125;-50
2024/04/18 17:58:37;;;;;;;2.30;0.85;;;;;;;;;;5330575;26;20143;-51
2024/04/18 18:01:11;;;;;;;3.92;0.90;;;;;;;;;;5320765;26;20146;-56
2024/04/18 18:03:38;;;;;;;4.15;0.90;;;;;;;;;;5321418;26;20125;-58
2024/04/18 18:06:09;;;;;;;2.97;0.80;;;;;;;;;;5326912;26;20143;-59
2024/04/18 18:08:47;;;;;;;1.40;0.60;;;;;;;;;;5314106;26;20175;-57
2024/04/18 18:39:33;;;;;;;6.32;1.55;;;;;;;;;;5341430;26;20145;-58
2024/04/18 18:41:58;;;;;;;9.50;1.98;;;;;;;;;;5344491;26;20525;-58
2024/04/18 18:44:27;;;;;;;7.57;2.15;;;;;;;;;;5357344;26;20135;-57
2024/04/18 18:46:53;;;;;;;5.60;2.10;;;;;;;;;;5319078;26;20216;-58
2024/04/18 18:49:21;;;;;;;11.38;3.67;;;;;;;;;;5324753;26;20578;-57
2024/04/18 18:51:49;;;;;;;6.15;2.40;;;;;;;;;;5312980;26;20141;-57
2024/04/18 18:54:15;;;;;;;8.73;2.35;;;;;;;;;;5326177;26;20157;-57
2024/04/18 18:56:43;;;;;;;6.80;2.40;;;;;;;;;;5348032;26;20272;-57
2024/04/18 18:59:09;;;;;;;6.97;2.47;;;;;;;;;;5318041;26;20209;-57
2024/04/18 19:01:39;;;;;;;7.22;2.67;;;;;;;;;;5319791;26;20198;-58
2024/04/18 19:04:06;;;;;;;8.35;2.38;;;;;;;;;;5330159;26;20265;-57
2024/04/18 19:06:37;;;;;;;5.38;2.08;;;;;;;;;;5328580;26;20121;-57
2024/04/18 19:09:08;;;;;;;4.73;2.27;;;;;;;;;;5348812;26;20208;-57
2024/04/18 19:11:34;;;;;;;5.63;2.70;;;;;;;;;;5320869;26;20133;-57
2024/04/18 19:14:06;;;;;;;5.43;2.30;;;;;;;;;;5354359;25;20147;-57
2024/04/18 19:16:32;;;;;;;6.20;2.38;;;;;;;;;;5345626;26;20225;-57
2024/04/18 19:19:03;;;;;;;5.60;2.10;;;;;;;;;;5325678;26;20154;-51
2024/04/18 19:21:29;;;;;;;5.00;2.08;;;;;;;;;;5330472;26;20537;-50
2024/04/18 19:23:57;;;;;;;3.50;1.77;;;;;;;;;;5331321;26;20216;-52
2024/04/18 19:26:26;;;;;;;5.70;2.30;;;;;;;;;;5329110;26;20143;-50
2024/04/18 19:28:54;;;;;;;6.18;1.80;;;;;;;;;;5359432;25;20490;-51
2024/04/18 19:31:22;;;;;;;8.68;1.85;;;;;;;;;;5325190;26;20120;-50
2024/04/18 19:33:49;;;;;;;3.53;1.75;;;;;;;;;;5298274;25;20143;-50
2024/04/18 19:36:20;;;;;;;4.75;2.15;;;;;;;;;;5353036;26;20207;-52
2024/04/18 19:38:48;;;;;;;3.92;1.70;;;;;;;;;;5390607;25;20128;-51